sensor_id;sensor_type;location;lat;lon;timestamp;pressure;altitude;pressure_sealevel;temperature;humidity
21504;BME280;10913;51.992;9.228;2022-12-18T00:00:55;101729.16;;;-7.37;93.09
21504;BME280;10913;51.992;9.228;2022-12-18T00:03:21;101733.25;;;-7.39;93.44
21504;BME280;10913;51.992;9.228;2022-12-18T00:05:50;101737.47;;;-7.39;93.63
21504;BME280;10913;51.992;9.228;2022-12-18T00:08:16;101740.19;;;-7.38;93.66
21504;BME280;10913;51.992;9.228;2022-12-18T00:10:43;101739.81;;;-7.42;93.16
21504;BME280;10913;51.992;9.228;2022-12-18T00:13:08;101741.34;;;-7.44;93.78
21504;BME280;10913;51.992;9.228;2022-12-18T00:15:35;101743.75;;;-7.46;93.87
21504;BME280;10913;51.992;9.228;2022-12-18T00:18:00;101744.66;;;-7.45;93.99
21504;BME280;10913;51.992;9.228;2022-12-18T00:20:26;101756.59;;;-7.46;93.78
21504;BME280;10913;51.992;9.228;2022-12-18T00:22:52;101763.41;;;-7.46;93.95
21504;BME280;10913;51.992;9.228;2022-12-18T00:25:18;101758.88;;;-7.49;93.77
21504;BME280;10913;51.992;9.228;2022-12-18T00:27:43;101762.97;;;-7.51;93.26
21504;BME280;10913;51.992;9.228;2022-12-18T00:30:09;101759.38;;;-7.53;93.32
21504;BME280;10913;51.992;9.228;2022-12-18T00:32:35;101758.34;;;-7.55;93.36
21504;BME280;10913;51.992;9.228;2022-12-18T00:35:00;101749.59;;;-7.57;93.92
21504;BME280;10913;51.992;9.228;2022-12-18T00:37:25;101752.31;;;-7.55;93.83
21504;BME280;10913;51.992;9.228;2022-12-18T00:39:51;101753.22;;;-7.55;93.91
21504;BME280;10913;51.992;9.228;2022-12-18T00:42:16;101751.41;;;-7.56;93.77
21504;BME280;10913;51.992;9.228;2022-12-18T00:45:00;101749.59;;;-7.57;93.46
21504;BME280;10913;51.992;9.228;2022-12-18T00:47:26;101757.81;;;-7.61;93.09
21504;BME280;10913;51.992;9.228;2022-12-18T00:49:51;101747.28;;;-7.64;93.06
21504;BME280;10913;51.992;9.228;2022-12-18T00:52:16;101753.78;;;-7.68;92.75
21504;BME280;10913;51.992;9.228;2022-12-18T00:54:41;101758.03;;;-7.68;93.33
21504;BME280;10913;51.992;9.228;2022-12-18T00:57:07;101769.81;;;-7.70;93.25
21504;BME280;10913;51.992;9.228;2022-12-18T00:59:32;101771.19;;;-7.74;93.32
21504;BME280;10913;51.992;9.228;2022-12-18T01:01:57;101766.06;;;-7.74;93.47
21504;BME280;10913;51.992;9.228;2022-12-18T01:04:23;101767.09;;;-7.72;93.80
21504;BME280;10913;51.992;9.228;2022-12-18T01:06:48;101760.94;;;-7.74;93.73
21504;BME280;10913;51.992;9.228;2022-12-18T01:09:13;101756.72;;;-7.73;93.99
21504;BME280;10913;51.992;9.228;2022-12-18T01:11:39;101759.13;;;-7.75;94.02
21504;BME280;10913;51.992;9.228;2022-12-18T01:14:05;101762.47;;;-7.76;94.26
21504;BME280;10913;51.992;9.228;2022-12-18T01:16:31;101765.16;;;-7.74;94.24
21504;BME280;10913;51.992;9.228;2022-12-18T01:18:56;101767.88;;;-7.73;94.72
21504;BME280;10913;51.992;9.228;2022-12-18T01:21:22;101766.22;;;-7.72;94.81
21504;BME280;10913;51.992;9.228;2022-12-18T01:23:52;101762.75;;;-7.73;95.42
21504;BME280;10913;51.992;9.228;2022-12-18T01:26:17;101764.25;;;-7.75;95.64
21504;BME280;10913;51.992;9.228;2022-12-18T01:28:43;101751.44;;;-7.75;95.89
21504;BME280;10913;51.992;9.228;2022-12-18T01:31:11;101751.59;;;-7.73;96.04
21504;BME280;10913;51.992;9.228;2022-12-18T01:33:36;101759.28;;;-7.73;96.13
21504;BME280;10913;51.992;9.228;2022-12-18T01:36:01;101761.06;;;-7.72;96.07
21504;BME280;10913;51.992;9.228;2022-12-18T01:38:28;101761.84;;;-7.73;96.03
21504;BME280;10913;51.992;9.228;2022-12-18T01:40:58;101759.41;;;-7.72;96.29
21504;BME280;10913;51.992;9.228;2022-12-18T01:43:41;101769.81;;;-7.70;96.26
21504;BME280;10913;51.992;9.228;2022-12-18T01:46:06;101767.25;;;-7.70;96.25
21504;BME280;10913;51.992;9.228;2022-12-18T01:48:31;101763.91;;;-7.69;95.72
21504;BME280;10913;51.992;9.228;2022-12-18T01:50:57;101768.56;;;-7.65;96.42
21504;BME280;10913;51.992;9.228;2022-12-18T01:53:25;101777.56;;;-7.60;97.06
21504;BME280;10913;51.992;9.228;2022-12-18T01:55:55;101772.22;;;-7.53;97.98
21504;BME280;10913;51.992;9.228;2022-12-18T01:58:30;101765.81;;;-7.48;98.40
21504;BME280;10913;51.992;9.228;2022-12-18T02:00:57;101758.41;;;-7.45;98.68
21504;BME280;10913;51.992;9.228;2022-12-18T02:03:22;101756.59;;;-7.46;98.77
21504;BME280;10913;51.992;9.228;2022-12-18T02:17:18;101765.09;;;-7.37;98.47
21504;BME280;10913;51.992;9.228;2022-12-18T02:26:06;101764.44;;;-7.44;98.71
21504;BME280;10913;51.992;9.228;2022-12-18T02:28:37;101758.25;;;-7.46;98.38
21504;BME280;10913;51.992;9.228;2022-12-18T02:31:08;101762.50;;;-7.47;98.12
21504;BME280;10913;51.992;9.228;2022-12-18T02:33:36;101760.69;;;-7.48;97.86
21504;BME280;10913;51.992;9.228;2022-12-18T02:36:04;101757.34;;;-7.47;98.15
21504;BME280;10913;51.992;9.228;2022-12-18T02:38:31;101751.59;;;-7.44;98.39
21504;BME280;10913;51.992;9.228;2022-12-18T02:40:57;101751.75;;;-7.43;98.37
21504;BME280;10913;51.992;9.228;2022-12-18T02:43:23;101754.31;;;-7.43;98.18
21504;BME280;10913;51.992;9.228;2022-12-18T02:45:50;101753.41;;;-7.43;98.11
21504;BME280;10913;51.992;9.228;2022-12-18T02:48:18;101750.97;;;-7.42;98.30
21504;BME280;10913;51.992;9.228;2022-12-18T02:53:33;101751.63;;;-7.34;98.53
21504;BME280;10913;51.992;9.228;2022-12-18T02:56:13;101751.75;;;-7.33;98.65
21504;BME280;10913;51.992;9.228;2022-12-18T02:59:06;101746.91;;;-7.30;98.85
21504;BME280;10913;51.992;9.228;2022-12-18T03:01:50;101737.25;;;-7.32;98.72
21504;BME280;10913;51.992;9.228;2022-12-18T03:04:49;101739.81;;;-7.32;98.88
21504;BME280;10913;51.992;9.228;2022-12-18T03:07:26;101738.94;;;-7.33;98.67
21504;BME280;10913;51.992;9.228;2022-12-18T03:09:54;101740.88;;;-7.30;98.64
21504;BME280;10913;51.992;9.228;2022-12-18T03:12:29;101739.06;;;-7.31;98.33
21504;BME280;10913;51.992;9.228;2022-12-18T03:15:09;101730.59;;;-7.30;98.67
21504;BME280;10913;51.992;9.228;2022-12-18T03:17:36;101737.03;;;-7.25;99.39
21504;BME280;10913;51.992;9.228;2022-12-18T03:20:16;101738.97;;;-7.22;99.87
21504;BME280;10913;51.992;9.228;2022-12-18T03:22:45;101737.44;;;-7.20;99.82
21504;BME280;10913;51.992;9.228;2022-12-18T03:25:13;101741.91;;;-7.18;99.85
21504;BME280;10913;51.992;9.228;2022-12-18T03:27:42;101743.84;;;-7.15;100.00
21504;BME280;10913;51.992;9.228;2022-12-18T03:30:12;101751.06;;;-7.11;100.00
21504;BME280;10913;51.992;9.228;2022-12-18T03:32:58;101759.31;;;-7.05;100.00
21504;BME280;10913;51.992;9.228;2022-12-18T03:35:30;101752.00;;;-7.01;100.00
21504;BME280;10913;51.992;9.228;2022-12-18T03:37:57;101753.13;;;-6.97;100.00
21504;BME280;10913;51.992;9.228;2022-12-18T03:46:24;101762.41;;;-6.89;100.00
21504;BME280;10913;51.992;9.228;2022-12-18T03:49:13;101767.56;;;-6.89;100.00
21504;BME280;10913;51.992;9.228;2022-12-18T03:51:55;101756.50;;;-6.88;100.00
21504;BME280;10913;51.992;9.228;2022-12-18T03:54:24;101761.00;;;-6.85;100.00
21504;BME280;10913;51.992;9.228;2022-12-18T03:56:58;101750.59;;;-6.87;100.00
21504;BME280;10913;51.992;9.228;2022-12-18T03:59:25;101749.34;;;-6.82;100.00
21504;BME280;10913;51.992;9.228;2022-12-18T04:01:52;101746.78;;;-6.82;100.00
21504;BME280;10913;51.992;9.228;2022-12-18T04:04:20;101748.31;;;-6.84;100.00
21504;BME280;10913;51.992;9.228;2022-12-18T04:06:47;101752.41;;;-6.86;100.00
21504;BME280;10913;51.992;9.228;2022-12-18T04:09:15;101748.81;;;-6.88;100.00
21504;BME280;10913;51.992;9.228;2022-12-18T04:11:41;101758.03;;;-6.90;100.00
21504;BME280;10913;51.992;9.228;2022-12-18T04:14:09;101757.00;;;-6.92;100.00
21504;BME280;10913;51.992;9.228;2022-12-18T04:16:34;101756.75;;;-6.95;100.00
21504;BME280;10913;51.992;9.228;2022-12-18T04:18:59;101754.16;;;-6.95;100.00
21504;BME280;10913;51.992;9.228;2022-12-18T04:21:25;101763.41;;;-6.97;100.00
21504;BME280;10913;51.992;9.228;2022-12-18T04:23:50;101768.56;;;-6.97;100.00
21504;BME280;10913;51.992;9.228;2022-12-18T04:26:16;101767.78;;;-6.96;99.87
21504;BME280;10913;51.992;9.228;2022-12-18T04:28:41;101761.59;;;-6.98;99.74
21504;BME280;10913;51.992;9.228;2022-12-18T04:31:06;101759.81;;;-6.99;99.62
21504;BME280;10913;51.992;9.228;2022-12-18T04:33:32;101760.72;;;-6.99;99.87
21504;BME280;10913;51.992;9.228;2022-12-18T04:35:57;101762.66;;;-6.96;100.00
21504;BME280;10913;51.992;9.228;2022-12-18T04:38:23;101764.31;;;-6.97;100.00
21504;BME280;10913;51.992;9.228;2022-12-18T04:40:48;101762.50;;;-6.98;99.58
21504;BME280;10913;51.992;9.228;2022-12-18T04:43:14;101762.13;;;-7.02;99.27
21504;BME280;10913;51.992;9.228;2022-12-18T04:45:39;101763.53;;;-7.06;99.45
21504;BME280;10913;51.992;9.228;2022-12-18T04:48:05;101762.38;;;-7.09;99.05
21504;BME280;10913;51.992;9.228;2022-12-18T04:50:30;101774.16;;;-7.11;99.05
21504;BME280;10913;51.992;9.228;2022-12-18T04:52:56;101778.66;;;-7.09;99.14
21504;BME280;10913;51.992;9.228;2022-12-18T04:55:21;101777.13;;;-7.07;99.42
21504;BME280;10913;51.992;9.228;2022-12-18T04:57:47;101770.34;;;-7.06;99.83
21504;BME280;10913;51.992;9.228;2022-12-18T05:00:13;101770.47;;;-7.05;99.63
21504;BME280;10913;51.992;9.228;2022-12-18T05:02:38;101765.34;;;-7.05;99.30
21504;BME280;10913;51.992;9.228;2022-12-18T05:05:04;101763.53;;;-7.06;99.07
21504;BME280;10913;51.992;9.228;2022-12-18T05:07:29;101761.72;;;-7.07;99.12
21504;BME280;10913;51.992;9.228;2022-12-18T05:09:55;101769.31;;;-7.08;98.83
21504;BME280;10913;51.992;9.228;2022-12-18T05:12:20;101772.63;;;-7.09;98.94
21504;BME280;10913;51.992;9.228;2022-12-18T05:14:46;101770.97;;;-7.09;98.61
21504;BME280;10913;51.992;9.228;2022-12-18T05:17:11;101775.97;;;-7.10;98.33
21504;BME280;10913;51.992;9.228;2022-12-18T05:19:36;101775.97;;;-7.10;98.49
21504;BME280;10913;51.992;9.228;2022-12-18T05:22:02;101774.78;;;-7.14;98.45
21504;BME280;10913;51.992;9.228;2022-12-18T05:24:27;101772.09;;;-7.15;98.03
21504;BME280;10913;51.992;9.228;2022-12-18T05:26:52;101761.69;;;-7.17;98.26
21504;BME280;10913;51.992;9.228;2022-12-18T05:29:18;101762.59;;;-7.16;98.10
21504;BME280;10913;51.992;9.228;2022-12-18T05:31:43;101761.56;;;-7.18;97.91
21504;BME280;10913;51.992;9.228;2022-12-18T05:34:09;101755.41;;;-7.20;97.79
21504;BME280;10913;51.992;9.228;2022-12-18T05:36:34;101757.72;;;-7.23;97.83
21504;BME280;10913;51.992;9.228;2022-12-18T05:38:59;101760.78;;;-7.27;97.65
21504;BME280;10913;51.992;9.228;2022-12-18T05:41:25;101770.91;;;-7.29;97.46
21504;BME280;10913;51.992;9.228;2022-12-18T05:43:51;101775.00;;;-7.31;97.28
21504;BME280;10913;51.992;9.228;2022-12-18T05:46:17;101781.03;;;-7.31;97.90
21504;BME280;10913;51.992;9.228;2022-12-18T05:48:45;101781.03;;;-7.31;97.45
21504;BME280;10913;51.992;9.228;2022-12-18T05:51:14;101787.06;;;-7.30;97.76
21504;BME280;10913;51.992;9.228;2022-12-18T05:53:40;101785.25;;;-7.31;97.73
21504;BME280;10913;51.992;9.228;2022-12-18T05:56:12;101784.38;;;-7.32;97.96
21504;BME280;10913;51.992;9.228;2022-12-18T05:58:38;101785.88;;;-7.34;98.00
21504;BME280;10913;51.992;9.228;2022-12-18T06:01:15;101788.47;;;-7.34;97.68
21504;BME280;10913;51.992;9.228;2022-12-18T06:03:41;101792.81;;;-7.33;97.78
21504;BME280;10913;51.992;9.228;2022-12-18T06:06:24;101795.25;;;-7.34;97.94
21504;BME280;10913;51.992;9.228;2022-12-18T06:08:50;101798.72;;;-7.34;97.80
21504;BME280;10913;51.992;9.228;2022-12-18T06:11:18;101791.78;;;-7.35;97.88
21504;BME280;10913;51.992;9.228;2022-12-18T06:13:44;101786.94;;;-7.32;98.91
21504;BME280;10913;51.992;9.228;2022-12-18T06:16:09;101780.28;;;-7.30;99.49
21504;BME280;10913;51.992;9.228;2022-12-18T06:18:34;101783.59;;;-7.31;99.02
21504;BME280;10913;51.992;9.228;2022-12-18T06:21:02;101781.78;;;-7.32;98.78
21504;BME280;10913;51.992;9.228;2022-12-18T06:23:28;101786.78;;;-7.33;98.42
21504;BME280;10913;51.992;9.228;2022-12-18T06:25:53;101786.78;;;-7.33;98.26
21504;BME280;10913;51.992;9.228;2022-12-18T06:28:19;101777.44;;;-7.33;98.38
21504;BME280;10913;51.992;9.228;2022-12-18T06:30:45;101780.13;;;-7.31;98.70
21504;BME280;10913;51.992;9.228;2022-12-18T06:33:11;101777.84;;;-7.28;98.74
21504;BME280;10913;51.992;9.228;2022-12-18T06:35:36;101775.28;;;-7.28;98.59
21504;BME280;10913;51.992;9.228;2022-12-18T06:38:02;101772.84;;;-7.26;99.00
21504;BME280;10913;51.992;9.228;2022-12-18T06:40:28;101779.16;;;-7.23;99.47
21504;BME280;10913;51.992;9.228;2022-12-18T06:42:53;101786.59;;;-7.16;99.33
21504;BME280;10913;51.992;9.228;2022-12-18T06:45:18;101791.88;;;-7.14;100.00
21504;BME280;10913;51.992;9.228;2022-12-18T06:47:44;101799.84;;;-7.11;100.00
21504;BME280;10913;51.992;9.228;2022-12-18T06:50:09;101805.25;;;-7.08;100.00
21504;BME280;10913;51.992;9.228;2022-12-18T06:52:35;101803.72;;;-7.06;100.00
21504;BME280;10913;51.992;9.228;2022-12-18T06:55:00;101811.69;;;-7.03;100.00
21504;BME280;10913;51.992;9.228;2022-12-18T06:57:25;101816.69;;;-7.05;100.00
21504;BME280;10913;51.992;9.228;2022-12-18T06:59:51;101813.22;;;-7.05;100.00
21504;BME280;10913;51.992;9.228;2022-12-18T07:02:16;101809.63;;;-7.07;100.00
21504;BME280;10913;51.992;9.228;2022-12-18T07:04:42;101814.00;;;-7.06;100.00
21504;BME280;10913;51.992;9.228;2022-12-18T07:07:07;101824.00;;;-7.09;99.61
21504;BME280;10913;51.992;9.228;2022-12-18T07:09:33;101815.88;;;-7.14;99.55
21504;BME280;10913;51.992;9.228;2022-12-18T07:11:58;101822.69;;;-7.14;99.54
21504;BME280;10913;51.992;9.228;2022-12-18T07:14:23;101818.03;;;-7.18;98.93
21504;BME280;10913;51.992;9.228;2022-12-18T07:16:49;101820.34;;;-7.21;98.63
21504;BME280;10913;51.992;9.228;2022-12-18T07:19:14;101825.97;;;-7.25;98.08
21504;BME280;10913;51.992;9.228;2022-12-18T07:21:40;101824.81;;;-7.29;98.19
21504;BME280;10913;51.992;9.228;2022-12-18T07:24:05;101823.28;;;-7.27;98.90
21504;BME280;10913;51.992;9.228;2022-12-18T07:26:31;101830.34;;;-7.24;99.30
21504;BME280;10913;51.992;9.228;2022-12-18T07:28:57;101832.16;;;-7.23;99.23
21504;BME280;10913;51.992;9.228;2022-12-18T07:31:22;101836.53;;;-7.22;99.28
21504;BME280;10913;51.992;9.228;2022-12-18T07:33:49;101846.03;;;-7.21;99.25
21504;BME280;10913;51.992;9.228;2022-12-18T07:36:15;101839.84;;;-7.23;98.80
21504;BME280;10913;51.992;9.228;2022-12-18T07:38:40;101842.69;;;-7.20;98.99
21504;BME280;10913;51.992;9.228;2022-12-18T07:41:11;101837.66;;;-7.19;98.86
21504;BME280;10913;51.992;9.228;2022-12-18T07:43:38;101824.34;;;-7.15;98.62
21504;BME280;10913;51.992;9.228;2022-12-18T07:46:03;101817.69;;;-7.13;98.69
21504;BME280;10913;51.992;9.228;2022-12-18T07:48:29;101809.50;;;-7.09;98.62
21504;BME280;10913;51.992;9.228;2022-12-18T07:50:59;101818.50;;;-7.04;98.65
21504;BME280;10913;51.992;9.228;2022-12-18T07:53:24;101815.44;;;-7.00;98.78
21504;BME280;10913;51.992;9.228;2022-12-18T07:55:55;101813.88;;;-6.98;98.48
21504;BME280;10913;51.992;9.228;2022-12-18T07:58:21;101811.44;;;-6.96;98.38
21504;BME280;10913;51.992;9.228;2022-12-18T08:00:46;101813.50;;;-6.92;98.05
21504;BME280;10913;51.992;9.228;2022-12-18T08:03:13;101815.72;;;-6.76;98.59
21504;BME280;10913;51.992;9.228;2022-12-18T08:05:38;101820.00;;;-6.56;97.47
21504;BME280;10913;51.992;9.228;2022-12-18T08:08:04;101820.31;;;-6.23;97.34
21504;BME280;10913;51.992;9.228;2022-12-18T08:10:29;101818.19;;;-5.76;97.34
21504;BME280;10913;51.992;9.228;2022-12-18T08:12:54;101813.19;;;-5.33;95.51
21504;BME280;10913;51.992;9.228;2022-12-18T08:15:20;101822.63;;;-5.01;93.88
21504;BME280;10913;51.992;9.228;2022-12-18T08:17:45;101818.34;;;-4.79;92.64
21504;BME280;10913;51.992;9.228;2022-12-18T08:20:11;101810.03;;;-4.65;91.89
21504;BME280;10913;51.992;9.228;2022-12-18T08:22:36;101817.31;;;-4.37;91.44
21504;BME280;10913;51.992;9.228;2022-12-18T08:25:02;101812.41;;;-3.89;90.29
21504;BME280;10913;51.992;9.228;2022-12-18T08:27:28;101805.16;;;-3.48;87.75
21504;BME280;10913;51.992;9.228;2022-12-18T08:29:54;101796.69;;;-3.10;85.96
21504;BME280;10913;51.992;9.228;2022-12-18T08:32:20;101800.38;;;-2.84;84.43
21504;BME280;10913;51.992;9.228;2022-12-18T08:34:45;101790.56;;;-2.51;82.51
21504;BME280;10913;51.992;9.228;2022-12-18T08:37:11;101789.72;;;-2.14;81.32
21504;BME280;10913;51.992;9.228;2022-12-18T08:39:36;101787.91;;;-1.77;79.92
21504;BME280;10913;51.992;9.228;2022-12-18T08:42:01;101770.66;;;-1.36;79.01
21504;BME280;10913;51.992;9.228;2022-12-18T08:44:45;101765.94;;;-0.61;76.63
21504;BME280;10913;51.992;9.228;2022-12-18T08:47:11;101756.38;;;-0.05;74.94
21504;BME280;10913;51.992;9.228;2022-12-18T08:49:36;101761.09;;;0.46;73.50
21504;BME280;10913;51.992;9.228;2022-12-18T08:52:02;101762.63;;;0.88;71.86
21504;BME280;10913;51.992;9.228;2022-12-18T08:54:28;101765.69;;;0.81;71.55
21504;BME280;10913;51.992;9.228;2022-12-18T08:56:54;101770.75;;;0.63;72.20
21504;BME280;10913;51.992;9.228;2022-12-18T08:59:19;101775.88;;;0.62;73.09
21504;BME280;10913;51.992;9.228;2022-12-18T09:01:46;101762.88;;;0.62;73.41
21504;BME280;10913;51.992;9.228;2022-12-18T09:04:12;101761.06;;;0.61;73.65
21504;BME280;10913;51.992;9.228;2022-12-18T09:06:37;101763.56;;;0.74;73.46
21504;BME280;10913;51.992;9.228;2022-12-18T09:09:04;101764.84;;;0.66;73.30
21504;BME280;10913;51.992;9.228;2022-12-18T09:11:31;101765.75;;;0.52;74.09
21504;BME280;10913;51.992;9.228;2022-12-18T09:13:57;101773.69;;;0.39;74.34
21504;BME280;10913;51.992;9.228;2022-12-18T09:16:24;101775.81;;;0.46;74.79
21504;BME280;10913;51.992;9.228;2022-12-18T09:18:50;101772.38;;;0.76;74.56
21504;BME280;10913;51.992;9.228;2022-12-18T09:21:18;101779.31;;;1.39;73.80
21504;BME280;10913;51.992;9.228;2022-12-18T09:23:48;101766.31;;;2.39;71.49
21504;BME280;10913;51.992;9.228;2022-12-18T09:26:14;101749.53;;;3.44;66.69
21504;BME280;10913;51.992;9.228;2022-12-18T09:28:39;101744.13;;;4.61;64.14
21504;BME280;10913;51.992;9.228;2022-12-18T09:31:06;101745.88;;;5.74;62.28
21504;BME280;10913;51.992;9.228;2022-12-18T09:33:33;101740.09;;;6.59;60.39
21504;BME280;10913;51.992;9.228;2022-12-18T09:36:01;101739.19;;;7.13;58.35
21504;BME280;10913;51.992;9.228;2022-12-18T09:38:27;101737.41;;;7.12;57.73
21504;BME280;10913;51.992;9.228;2022-12-18T09:40:59;101733.41;;;7.25;58.00
21504;BME280;10913;51.992;9.228;2022-12-18T09:43:33;101737.09;;;7.03;57.48
21504;BME280;10913;51.992;9.228;2022-12-18T09:46:04;101735.75;;;6.61;57.81
21504;BME280;10913;51.992;9.228;2022-12-18T09:48:35;101741.06;;;5.86;59.92
21504;BME280;10913;51.992;9.228;2022-12-18T09:51:12;101740.13;;;5.14;61.60
21504;BME280;10913;51.992;9.228;2022-12-18T09:53:41;101732.75;;;4.59;63.10
21504;BME280;10913;51.992;9.228;2022-12-18T09:56:16;101731.78;;;4.15;64.73
21504;BME280;10913;51.992;9.228;2022-12-18T09:58:46;101729.91;;;3.92;65.74
21504;BME280;10913;51.992;9.228;2022-12-18T10:01:22;101739.88;;;3.81;66.33
21504;BME280;10913;51.992;9.228;2022-12-18T10:03:48;101744.44;;;3.66;67.18
21504;BME280;10913;51.992;9.228;2022-12-18T10:06:24;101746.09;;;3.45;66.38
21504;BME280;10913;51.992;9.228;2022-12-18T10:17:28;101728.13;;;4.54;64.24
21504;BME280;10913;51.992;9.228;2022-12-18T10:25:05;101730.06;;;5.25;61.94
21504;BME280;10913;51.992;9.228;2022-12-18T10:27:32;101724.53;;;5.41;62.56
21504;BME280;10913;51.992;9.228;2022-12-18T10:29:57;101724.81;;;5.02;62.45
21504;BME280;10913;51.992;9.228;2022-12-18T10:32:25;101725.69;;;4.79;62.25
21504;BME280;10913;51.992;9.228;2022-12-18T10:34:54;101726.66;;;4.82;63.06
21504;BME280;10913;51.992;9.228;2022-12-18T10:37:23;101719.78;;;4.84;63.28
21504;BME280;10913;51.992;9.228;2022-12-18T10:40:11;101726.16;;;4.91;63.44
21504;BME280;10913;51.992;9.228;2022-12-18T10:42:38;101709.03;;;4.77;62.51
21504;BME280;10913;51.992;9.228;2022-12-18T10:45:11;101706.28;;;4.96;63.14
21504;BME280;10913;51.992;9.228;2022-12-18T10:47:42;101687.34;;;4.81;62.12
21504;BME280;10913;51.992;9.228;2022-12-18T10:50:19;101679.19;;;4.51;62.25
21504;BME280;10913;51.992;9.228;2022-12-18T10:52:54;101671.22;;;4.48;62.04
21504;BME280;10913;51.992;9.228;2022-12-18T10:55:20;101674.94;;;4.32;62.65
21504;BME280;10913;51.992;9.228;2022-12-18T10:57:45;101676.47;;;4.06;63.55
21504;BME280;10913;51.992;9.228;2022-12-18T11:00:22;101680.59;;;4.01;64.13
21504;BME280;10913;51.992;9.228;2022-12-18T11:02:48;101671.72;;;4.17;63.59
21504;BME280;10913;51.992;9.228;2022-12-18T11:05:26;101671.16;;;4.26;63.64
21504;BME280;10913;51.992;9.228;2022-12-18T11:07:52;101673.97;;;4.30;62.67
21504;BME280;10913;51.992;9.228;2022-12-18T11:10:28;101660.09;;;4.54;63.89
21504;BME280;10913;51.992;9.228;2022-12-18T11:12:55;101661.84;;;4.75;63.77
21504;BME280;10913;51.992;9.228;2022-12-18T11:15:27;101658.59;;;4.82;62.05
21504;BME280;10913;51.992;9.228;2022-12-18T11:17:54;101648.31;;;4.87;61.82
21504;BME280;10913;51.992;9.228;2022-12-18T11:20:32;101641.53;;;4.70;61.43
21504;BME280;10913;51.992;9.228;2022-12-18T11:23:02;101632.47;;;4.62;62.81
21504;BME280;10913;51.992;9.228;2022-12-18T11:25:29;101635.16;;;4.63;62.81
21504;BME280;10913;51.992;9.228;2022-12-18T11:30:32;101630.53;;;4.56;62.00
21504;BME280;10913;51.992;9.228;2022-12-18T11:33:09;101625.63;;;4.43;61.68
21504;BME280;10913;51.992;9.228;2022-12-18T11:35:42;101622.66;;;4.11;62.36
21504;BME280;10913;51.992;9.228;2022-12-18T11:38:32;101621.69;;;3.89;63.12
21504;BME280;10913;51.992;9.228;2022-12-18T11:43:54;101597.88;;;3.41;64.33
21504;BME280;10913;51.992;9.228;2022-12-18T11:46:27;101595.44;;;3.25;65.30
21504;BME280;10913;51.992;9.228;2022-12-18T11:49:06;101593.00;;;3.08;65.58
21504;BME280;10913;51.992;9.228;2022-12-18T11:51:49;101595.22;;;2.99;66.48
21504;BME280;10913;51.992;9.228;2022-12-18T11:54:16;101576.59;;;2.92;66.61
21504;BME280;10913;51.992;9.228;2022-12-18T11:56:58;101569.38;;;2.86;67.81
21504;BME280;10913;51.992;9.228;2022-12-18T12:00:30;101564.00;;;2.83;68.87
21504;BME280;10913;51.992;9.228;2022-12-18T12:16:17;101561.69;;;2.70;69.27
21504;BME280;10913;51.992;9.228;2022-12-18T12:21:23;101544.66;;;2.39;67.31
21504;BME280;10913;51.992;9.228;2022-12-18T12:26:51;101534.28;;;2.04;68.03
21504;BME280;10913;51.992;9.228;2022-12-18T12:32:29;101515.56;;;1.76;69.14
21504;BME280;10913;51.992;9.228;2022-12-18T12:40:06;101523.38;;;1.58;70.33
21504;BME280;10913;51.992;9.228;2022-12-18T12:42:39;101517.94;;;1.53;70.28
21504;BME280;10913;51.992;9.228;2022-12-18T12:45:50;101516.97;;;1.51;70.50
21504;BME280;10913;51.992;9.228;2022-12-18T12:48:48;101520.00;;;1.43;70.16
21504;BME280;10913;51.992;9.228;2022-12-18T12:51:26;101513.59;;;1.36;70.33
21504;BME280;10913;51.992;9.228;2022-12-18T12:53:54;101521.41;;;1.36;70.86
21504;BME280;10913;51.992;9.228;2022-12-18T12:56:21;101526.38;;;1.31;71.23
21504;BME280;10913;51.992;9.228;2022-12-18T13:07:15;101515.41;;;1.21;71.78
21504;BME280;10913;51.992;9.228;2022-12-18T13:15:32;101516.69;;;1.11;72.14
21504;BME280;10913;51.992;9.228;2022-12-18T13:20:34;101524.25;;;1.07;71.90
21504;BME280;10913;51.992;9.228;2022-12-18T13:23:17;101528.41;;;1.03;71.92
21504;BME280;10913;51.992;9.228;2022-12-18T13:25:44;101529.22;;;1.02;72.41
21504;BME280;10913;51.992;9.228;2022-12-18T13:28:11;101529.22;;;1.02;72.66
21504;BME280;10913;51.992;9.228;2022-12-18T13:36:09;101504.91;;;1.01;72.95
21504;BME280;10913;51.992;9.228;2022-12-18T13:38:35;101495.81;;;0.93;73.07
21504;BME280;10913;51.992;9.228;2022-12-18T13:43:41;101489.56;;;0.90;73.33
21504;BME280;10913;51.992;9.228;2022-12-18T13:51:51;101484.94;;;0.84;74.04
21504;BME280;10913;51.992;9.228;2022-12-18T13:54:37;101483.88;;;0.81;73.70
21504;BME280;10913;51.992;9.228;2022-12-18T13:57:05;101482.03;;;0.78;73.87
21504;BME280;10913;51.992;9.228;2022-12-18T13:59:48;101476.75;;;0.77;73.86
21504;BME280;10913;51.992;9.228;2022-12-18T14:02:17;101479.44;;;0.78;73.64
21504;BME280;10913;51.992;9.228;2022-12-18T14:04:45;101472.28;;;0.74;72.75
21504;BME280;10913;51.992;9.228;2022-12-18T14:07:20;101475.53;;;0.70;73.02
21504;BME280;10913;51.992;9.228;2022-12-18T14:09:49;101471.97;;;0.68;73.22
21504;BME280;10913;51.992;9.228;2022-12-18T14:12:20;101459.69;;;0.65;73.39
21504;BME280;10913;51.992;9.228;2022-12-18T14:15:14;101456.19;;;0.65;73.73
21504;BME280;10913;51.992;9.228;2022-12-18T14:17:46;101442.16;;;0.61;73.96
21504;BME280;10913;51.992;9.228;2022-12-18T14:20:15;101440.34;;;0.60;74.37
21504;BME280;10913;51.992;9.228;2022-12-18T14:22:43;101438.53;;;0.58;74.34
21504;BME280;10913;51.992;9.228;2022-12-18T14:25:17;101439.25;;;0.55;74.36
21504;BME280;10913;51.992;9.228;2022-12-18T14:27:51;101452.00;;;0.51;73.84
21504;BME280;10913;51.992;9.228;2022-12-18T14:35:36;101455.34;;;0.48;74.08
21504;BME280;10913;51.992;9.228;2022-12-18T14:40:58;101465.47;;;0.44;74.47
21504;BME280;10913;51.992;9.228;2022-12-18T14:43:26;101476.69;;;0.43;74.34
21504;BME280;10913;51.992;9.228;2022-12-18T14:45:52;101474.59;;;0.36;74.13
21504;BME280;10913;51.992;9.228;2022-12-18T14:51:00;101456.41;;;0.36;74.49
21504;BME280;10913;51.992;9.228;2022-12-18T14:53:41;101448.38;;;0.31;74.22
21504;BME280;10913;51.992;9.228;2022-12-18T14:56:20;101456.06;;;0.29;74.17